Time;durP1;ratioP1;P1;durP2;ratioP2;P2;SDS_P1;SDS_P2;PMS_P1;PMS_P2;Temp;Humidity;BMP_temperature;BMP_pressure;BME280_temperature;BME280_humidity;BME280_pressure;Samples;Min_cycle;Max_cycle;Signal;HPM_P1;HPM_P2
2022/07/15 00:00:40;;;;;;;3.27;1.63;;;;;;;;;;5044711;28;20213;-63
2022/07/15 00:03:12;;;;;;;3.30;1.50;;;;;;;;;;5052698;28;20210;-63
2022/07/15 00:05:45;;;;;;;4.13;1.50;;;;;;;;;;5053068;28;20186;-63
2022/07/15 00:08:16;;;;;;;4.10;1.70;;;;;;;;;;5044447;28;20776;-63
2022/07/15 00:10:48;;;;;;;3.63;1.87;;;;;;;;;;5031978;28;20198;-63
2022/07/15 00:13:18;;;;;;;3.10;1.97;;;;;;;;;;5053776;28;20202;-63
2022/07/15 00:15:50;;;;;;;4.83;1.90;;;;;;;;;;5046104;28;20214;-63
2022/07/15 00:18:20;;;;;;;3.47;1.80;;;;;;;;;;5049198;28;20596;-63
2022/07/15 00:20:53;;;;;;;3.33;1.77;;;;;;;;;;5051339;28;20229;-63
2022/07/15 00:23:28;;;;;;;3.97;1.70;;;;;;;;;;5058323;28;20595;-63
2022/07/15 00:25:56;;;;;;;3.87;1.70;;;;;;;;;;5010158;28;20211;-63
2022/07/15 00:28:28;;;;;;;2.90;1.50;;;;;;;;;;5047501;28;20581;-63
2022/07/15 00:31:00;;;;;;;3.07;1.60;;;;;;;;;;5047116;28;20198;-63
2022/07/15 00:33:32;;;;;;;4.33;2.00;;;;;;;;;;5047104;28;20742;-63
2022/07/15 00:36:04;;;;;;;3.40;1.80;;;;;;;;;;5050914;28;20190;-63
2022/07/15 00:38:37;;;;;;;4.53;1.93;;;;;;;;;;5043090;28;20219;-63
2022/07/15 00:41:06;;;;;;;4.33;1.60;;;;;;;;;;5057898;28;20677;-63
2022/07/15 00:43:40;;;;;;;5.03;2.17;;;;;;;;;;5057132;28;20197;-63
2022/07/15 00:46:15;;;;;;;3.20;1.80;;;;;;;;;;5035631;28;20193;-63
2022/07/15 00:48:54;;;;;;;4.37;1.77;;;;;;;;;;5025386;28;20353;-64
2022/07/15 00:51:43;;;;;;;3.23;1.60;;;;;;;;;;5029103;28;20209;-63
2022/07/15 00:54:26;;;;;;;3.47;1.77;;;;;;;;;;5037499;28;20188;-63
2022/07/15 00:56:57;;;;;;;6.07;2.00;;;;;;;;;;5035566;28;20224;-63
2022/07/15 00:59:29;;;;;;;2.97;1.43;;;;;;;;;;5043706;28;20214;-63
2022/07/15 01:02:03;;;;;;;3.33;1.47;;;;;;;;;;5030614;28;20223;-63
2022/07/15 01:04:33;;;;;;;3.73;1.80;;;;;;;;;;5033761;28;20202;-63
2022/07/15 01:07:06;;;;;;;4.10;1.87;;;;;;;;;;5031733;28;20698;-63
2022/07/15 01:09:35;;;;;;;5.33;1.80;;;;;;;;;;5036866;28;20537;-64
2022/07/15 01:12:05;;;;;;;3.60;1.73;;;;;;;;;;5042945;28;20203;-63
2022/07/15 01:14:36;;;;;;;3.27;1.53;;;;;;;;;;5028598;28;20269;-63
2022/07/15 01:17:15;;;;;;;3.53;1.73;;;;;;;;;;5033016;28;20816;-62
2022/07/15 01:19:47;;;;;;;6.47;2.43;;;;;;;;;;5033708;28;20877;-62
2022/07/15 01:22:19;;;;;;;2.53;1.20;;;;;;;;;;5035554;28;20679;-63
2022/07/15 01:24:50;;;;;;;6.47;1.80;;;;;;;;;;5025937;28;20698;-63
2022/07/15 01:27:21;;;;;;;5.67;1.63;;;;;;;;;;5027459;28;20206;-64
2022/07/15 01:29:49;;;;;;;4.73;1.70;;;;;;;;;;5040035;28;20209;-63
2022/07/15 01:32:22;;;;;;;4.20;1.87;;;;;;;;;;5029648;28;20249;-63
2022/07/15 01:34:52;;;;;;;2.97;1.30;;;;;;;;;;5039291;28;20210;-63
2022/07/15 01:37:27;;;;;;;5.60;2.10;;;;;;;;;;5022707;28;20226;-63
2022/07/15 01:39:58;;;;;;;3.10;1.60;;;;;;;;;;5032795;28;20269;-63
2022/07/15 01:42:30;;;;;;;4.97;1.60;;;;;;;;;;5035767;28;20579;-63
2022/07/15 01:45:08;;;;;;;3.70;1.73;;;;;;;;;;5032371;28;20617;-63
2022/07/15 01:47:49;;;;;;;2.83;1.43;;;;;;;;;;5025443;28;20202;-63
2022/07/15 01:50:22;;;;;;;4.23;1.60;;;;;;;;;;5056977;28;20217;-63
2022/07/15 01:52:51;;;;;;;3.47;1.43;;;;;;;;;;5054162;28;20195;-63
2022/07/15 01:55:27;;;;;;;3.93;1.57;;;;;;;;;;5056857;28;20182;-63
2022/07/15 01:58:09;;;;;;;4.90;2.27;;;;;;;;;;5043585;28;20248;-63
2022/07/15 02:00:38;;;;;;;3.77;1.53;;;;;;;;;;5053234;28;20218;-63
2022/07/15 02:03:10;;;;;;;5.03;1.67;;;;;;;;;;5060564;28;20244;-63
2022/07/15 02:05:40;;;;;;;3.13;1.63;;;;;;;;;;5016021;28;20652;-62
2022/07/15 02:08:11;;;;;;;3.03;1.67;;;;;;;;;;5035576;28;20229;-63
2022/07/15 02:10:44;;;;;;;4.67;1.73;;;;;;;;;;5051589;28;20198;-63
2022/07/15 02:13:16;;;;;;;4.90;1.80;;;;;;;;;;5050345;28;20276;-63
2022/07/15 02:15:46;;;;;;;5.80;1.90;;;;;;;;;;5007535;28;20210;-63
2022/07/15 02:18:17;;;;;;;7.43;1.70;;;;;;;;;;5042814;28;20195;-63
2022/07/15 02:20:49;;;;;;;4.77;1.80;;;;;;;;;;5052265;28;20545;-62
2022/07/15 02:23:20;;;;;;;3.63;1.97;;;;;;;;;;5036989;28;20202;-61
2022/07/15 02:25:52;;;;;;;3.30;1.50;;;;;;;;;;5044741;28;20263;-62
2022/07/15 02:28:23;;;;;;;2.30;1.40;;;;;;;;;;5045201;28;20742;-62
2022/07/15 02:30:55;;;;;;;4.33;1.83;;;;;;;;;;5029754;28;20241;-61
2022/07/15 02:33:24;;;;;;;6.90;1.73;;;;;;;;;;5053217;28;20186;-62
2022/07/15 02:35:56;;;;;;;3.57;1.67;;;;;;;;;;5063245;28;20516;-62
2022/07/15 02:38:28;;;;;;;6.70;1.60;;;;;;;;;;5055182;28;20206;-62
2022/07/15 02:40:58;;;;;;;4.50;1.70;;;;;;;;;;5033635;28;20226;-62
2022/07/15 02:43:31;;;;;;;3.53;1.73;;;;;;;;;;5035255;28;20201;-62
2022/07/15 02:46:05;;;;;;;2.83;1.60;;;;;;;;;;5020888;28;20643;-62
2022/07/15 02:48:37;;;;;;;3.93;1.67;;;;;;;;;;5053001;28;20223;-62
2022/07/15 02:51:09;;;;;;;4.67;1.80;;;;;;;;;;5046421;28;20225;-62
2022/07/15 02:53:43;;;;;;;3.23;1.70;;;;;;;;;;5030245;28;20207;-62
2022/07/15 02:56:12;;;;;;;4.13;1.73;;;;;;;;;;5032608;28;20226;-62
2022/07/15 02:58:42;;;;;;;3.17;1.90;;;;;;;;;;5049296;28;20327;-62
2022/07/15 03:01:17;;;;;;;6.30;2.17;;;;;;;;;;5053518;28;20253;-62
2022/07/15 03:03:47;;;;;;;4.53;2.07;;;;;;;;;;5027749;28;20659;-62
2022/07/15 03:06:17;;;;;;;3.03;1.60;;;;;;;;;;5059738;28;20190;-62
2022/07/15 03:08:49;;;;;;;6.70;1.97;;;;;;;;;;5054518;28;20190;-62
2022/07/15 03:11:21;;;;;;;4.67;2.10;;;;;;;;;;5058044;28;20390;-62
2022/07/15 03:14:06;;;;;;;2.83;1.50;;;;;;;;;;5032352;28;20210;-62
2022/07/15 03:16:36;;;;;;;3.97;1.97;;;;;;;;;;5053933;28;20194;-62
2022/07/15 03:19:08;;;;;;;4.40;1.83;;;;;;;;;;5061073;28;20303;-62
2022/07/15 03:21:41;;;;;;;4.20;1.73;;;;;;;;;;5053154;28;20229;-62
2022/07/15 03:24:14;;;;;;;4.07;1.80;;;;;;;;;;5048521;28;20190;-62
2022/07/15 03:26:45;;;;;;;3.90;1.60;;;;;;;;;;5053002;28;20336;-62
2022/07/15 03:29:15;;;;;;;4.40;1.90;;;;;;;;;;5050119;28;20190;-62
2022/07/15 03:31:47;;;;;;;4.40;1.70;;;;;;;;;;5055690;28;20237;-62
2022/07/15 03:34:17;;;;;;;4.53;1.70;;;;;;;;;;5067414;28;20193;-62
2022/07/15 03:36:47;;;;;;;3.33;2.03;;;;;;;;;;5058228;28;20201;-62
2022/07/15 03:39:19;;;;;;;3.53;1.63;;;;;;;;;;5055340;28;20598;-62
2022/07/15 03:41:52;;;;;;;2.53;1.70;;;;;;;;;;5056891;28;20224;-62
2022/07/15 03:44:36;;;;;;;5.03;2.20;;;;;;;;;;5031914;28;20297;-62
2022/07/15 03:47:07;;;;;;;3.97;1.93;;;;;;;;;;5063842;28;20197;-61
2022/07/15 03:49:37;;;;;;;3.37;1.80;;;;;;;;;;5050013;28;20234;-62
2022/07/15 03:52:08;;;;;;;5.17;1.60;;;;;;;;;;5031272;28;20225;-62
2022/07/15 03:54:38;;;;;;;2.47;1.30;;;;;;;;;;5027832;28;20218;-62
2022/07/15 03:57:11;;;;;;;4.00;1.80;;;;;;;;;;5061332;28;20206;-64
2022/07/15 03:59:43;;;;;;;3.47;1.90;;;;;;;;;;5038588;28;20202;-64
2022/07/15 04:02:12;;;;;;;4.37;2.00;;;;;;;;;;5029720;28;20794;-63
2022/07/15 04:04:43;;;;;;;3.73;1.70;;;;;;;;;;5059543;28;20214;-62
2022/07/15 04:07:15;;;;;;;4.27;1.97;;;;;;;;;;5059225;28;20206;-63
2022/07/15 04:09:47;;;;;;;2.97;1.50;;;;;;;;;;5053274;28;20340;-63
2022/07/15 04:12:16;;;;;;;3.90;1.87;;;;;;;;;;5054596;28;20297;-63
2022/07/15 04:14:47;;;;;;;4.33;1.70;;;;;;;;;;5035883;28;20221;-63
2022/07/15 04:17:18;;;;;;;4.47;1.80;;;;;;;;;;5046618;28;20202;-62
2022/07/15 04:19:47;;;;;;;3.60;1.83;;;;;;;;;;5045200;28;20210;-62
2022/07/15 04:22:21;;;;;;;6.87;1.90;;;;;;;;;;5052294;28;20206;-61
2022/07/15 04:24:50;;;;;;;3.03;1.40;;;;;;;;;;5044603;28;20273;-61
2022/07/15 04:27:20;;;;;;;4.03;1.50;;;;;;;;;;5028618;28;20214;-62
2022/07/15 04:29:51;;;;;;;4.80;1.93;;;;;;;;;;5054475;28;20765;-62
2022/07/15 04:32:20;;;;;;;4.33;1.77;;;;;;;;;;5043808;28;20217;-63
2022/07/15 04:34:53;;;;;;;3.40;1.70;;;;;;;;;;5052673;28;20198;-63
2022/07/15 04:37:23;;;;;;;4.13;1.97;;;;;;;;;;5028245;28;20198;-62
2022/07/15 04:39:51;;;;;;;4.67;1.60;;;;;;;;;;5036605;28;20647;-61
2022/07/15 04:42:23;;;;;;;5.13;1.80;;;;;;;;;;5035107;28;20218;-62
2022/07/15 04:44:56;;;;;;;3.20;1.70;;;;;;;;;;5057033;28;20225;-61
2022/07/15 04:47:26;;;;;;;4.43;1.83;;;;;;;;;;5033250;28;20285;-62
2022/07/15 04:52:48;;;;;;;3.77;1.83;;;;;;;;;;5052506;28;20634;-63
2022/07/15 04:55:16;;;;;;;4.83;1.70;;;;;;;;;;5052051;28;20235;-63
2022/07/15 04:57:49;;;;;;;6.50;2.30;;;;;;;;;;5038200;28;20198;-62
2022/07/15 05:00:22;;;;;;;4.43;1.97;;;;;;;;;;5047918;28;20194;-62
2022/07/15 05:02:51;;;;;;;4.70;2.00;;;;;;;;;;5044786;28;20624;-62
2022/07/15 05:05:21;;;;;;;5.07;2.00;;;;;;;;;;5041174;28;20197;-62
2022/07/15 05:07:53;;;;;;;4.37;2.00;;;;;;;;;;5047895;28;20210;-62
2022/07/15 05:10:40;;;;;;;4.17;2.10;;;;;;;;;;5033176;28;20214;-63
2022/07/15 05:13:12;;;;;;;3.90;1.57;;;;;;;;;;5046796;28;20190;-63
2022/07/15 05:15:44;;;;;;;4.83;1.60;;;;;;;;;;5051030;28;20225;-63
2022/07/15 05:18:15;;;;;;;5.87;2.43;;;;;;;;;;5056375;28;20197;-63
2022/07/15 05:20:50;;;;;;;5.90;2.03;;;;;;;;;;5057130;28;20633;-61
2022/07/15 05:23:21;;;;;;;6.23;1.70;;;;;;;;;;5060390;28;20308;-63
2022/07/15 05:25:51;;;;;;;3.27;1.70;;;;;;;;;;5047282;28;20267;-65
2022/07/15 05:28:21;;;;;;;2.73;1.30;;;;;;;;;;5052618;28;20838;-65
2022/07/15 05:30:51;;;;;;;10.70;2.97;;;;;;;;;;5039881;28;20213;-64
2022/07/15 05:33:24;;;;;;;75.37;21.03;;;;;;;;;;5055738;28;20195;-63
2022/07/15 05:35:56;;;;;;;76.43;21.60;;;;;;;;;;5038757;28;20217;-66
2022/07/15 05:38:31;;;;;;;75.53;22.40;;;;;;;;;;5049114;28;20228;-65
2022/07/15 05:41:03;;;;;;;68.87;20.20;;;;;;;;;;5020388;28;20226;-65
2022/07/15 05:43:33;;;;;;;54.10;16.13;;;;;;;;;;5042373;28;20198;-64
2022/07/15 05:46:02;;;;;;;48.40;15.10;;;;;;;;;;5037516;28;20198;-65
2022/07/15 05:48:33;;;;;;;37.40;12.27;;;;;;;;;;5055132;28;20316;-64
2022/07/15 05:51:03;;;;;;;30.90;10.10;;;;;;;;;;5052051;28;20300;-65
2022/07/15 05:53:33;;;;;;;23.33;8.67;;;;;;;;;;5048428;28;20206;-65
2022/07/15 05:56:15;;;;;;;24.83;8.57;;;;;;;;;;5052439;28;20540;-64
2022/07/15 05:58:44;;;;;;;18.63;6.33;;;;;;;;;;5036406;28;20190;-65
2022/07/15 06:01:14;;;;;;;18.27;6.37;;;;;;;;;;5061186;28;20270;-64
2022/07/15 06:03:46;;;;;;;16.53;5.87;;;;;;;;;;5036236;28;20719;-65
2022/07/15 06:06:17;;;;;;;12.63;4.50;;;;;;;;;;5032417;28;20189;-65
2022/07/15 06:08:47;;;;;;;10.40;3.90;;;;;;;;;;5039118;28;20202;-65
2022/07/15 06:11:16;;;;;;;9.80;3.97;;;;;;;;;;5049682;28;20256;-65
2022/07/15 06:13:45;;;;;;;8.33;3.37;;;;;;;;;;5027189;28;21304;-64
2022/07/15 06:16:14;;;;;;;6.43;3.60;;;;;;;;;;5050418;28;20623;-65
2022/07/15 06:18:48;;;;;;;6.73;2.83;;;;;;;;;;5050577;28;20195;-65
2022/07/15 06:21:20;;;;;;;6.93;2.67;;;;;;;;;;5050342;28;20210;-65
2022/07/15 06:23:50;;;;;;;6.07;2.73;;;;;;;;;;5050219;28;20178;-65
2022/07/15 06:26:26;;;;;;;7.93;2.83;;;;;;;;;;5046048;28;20865;-65
2022/07/15 06:28:57;;;;;;;4.00;2.03;;;;;;;;;;5050787;28;20548;-65
2022/07/15 06:31:28;;;;;;;6.27;2.20;;;;;;;;;;5048135;28;20209;-65
2022/07/15 06:33:59;;;;;;;6.45;2.40;;;;;;;;;;5037918;28;20488;-66
2022/07/15 06:36:32;;;;;;;4.23;2.30;;;;;;;;;;5033886;28;20217;-68
2022/07/15 06:39:04;;;;;;;5.10;2.07;;;;;;;;;;5058743;28;20214;-65
2022/07/15 06:41:34;;;;;;;4.80;2.00;;;;;;;;;;5054414;28;20214;-66
2022/07/15 06:44:05;;;;;;;3.13;1.93;;;;;;;;;;5036408;28;20218;-68
2022/07/15 06:46:48;;;;;;;4.33;1.80;;;;;;;;;;5052697;28;20611;-68
2022/07/15 06:49:25;;;;;;;3.73;1.73;;;;;;;;;;5051213;28;20574;-68
2022/07/15 06:51:55;;;;;;;3.93;1.50;;;;;;;;;;5031933;28;20191;-69
2022/07/15 06:54:37;;;;;;;4.17;1.53;;;;;;;;;;5051273;28;20647;-69
2022/07/15 06:57:07;;;;;;;4.63;1.77;;;;;;;;;;5059590;28;20198;-66
2022/07/15 06:59:48;;;;;;;4.33;1.67;;;;;;;;;;5052178;28;20206;-68
2022/07/15 07:02:19;;;;;;;4.07;1.43;;;;;;;;;;5023169;28;20218;-68
2022/07/15 07:04:52;;;;;;;9.27;1.90;;;;;;;;;;5061534;28;20201;-70
2022/07/15 07:07:23;;;;;;;4.13;1.97;;;;;;;;;;5053204;28;20616;-69
2022/07/15 07:09:53;;;;;;;6.97;1.77;;;;;;;;;;5047772;28;20207;-68
2022/07/15 07:12:23;;;;;;;4.67;1.57;;;;;;;;;;5049201;28;20195;-68
2022/07/15 07:14:53;;;;;;;4.67;1.60;;;;;;;;;;5024557;28;20575;-68
2022/07/15 07:17:24;;;;;;;5.27;2.00;;;;;;;;;;5049813;28;20205;-68
2022/07/15 07:19:55;;;;;;;3.73;1.30;;;;;;;;;;5041000;28;20198;-68
2022/07/15 07:22:27;;;;;;;3.87;1.90;;;;;;;;;;5048477;28;20283;-69
2022/07/15 07:24:59;;;;;;;4.37;2.00;;;;;;;;;;5052528;28;20203;-68
2022/07/15 07:27:37;;;;;;;3.70;1.40;;;;;;;;;;5053261;28;20424;-68
2022/07/15 07:30:05;;;;;;;4.70;1.30;;;;;;;;;;5060007;28;20189;-69
2022/07/15 07:32:36;;;;;;;7.53;1.67;;;;;;;;;;5032383;28;20206;-67
2022/07/15 07:35:08;;;;;;;5.10;1.33;;;;;;;;;;5050804;28;20205;-67
2022/07/15 07:37:38;;;;;;;5.00;1.30;;;;;;;;;;5044680;28;20191;-66
2022/07/15 07:40:11;;;;;;;4.57;1.53;;;;;;;;;;5034942;28;20209;-67
2022/07/15 07:42:40;;;;;;;3.90;1.70;;;;;;;;;;5047100;28;20724;-66
2022/07/15 07:45:12;;;;;;;3.27;1.33;;;;;;;;;;5053956;28;20267;-66
2022/07/15 07:47:43;;;;;;;5.30;1.50;;;;;;;;;;5065039;28;20264;-68
2022/07/15 07:50:35;;;;;;;6.57;1.50;;;;;;;;;;5059142;28;20226;-67
2022/07/15 07:53:07;;;;;;;6.90;1.50;;;;;;;;;;5054943;28;20971;-66
2022/07/15 07:55:39;;;;;;;4.40;1.70;;;;;;;;;;5053035;28;20200;-66
2022/07/15 07:58:11;;;;;;;5.20;1.63;;;;;;;;;;5033886;28;20199;-68
2022/07/15 08:00:55;;;;;;;3.70;1.53;;;;;;;;;;5060785;28;20232;-66
2022/07/15 08:03:42;;;;;;;5.03;1.70;;;;;;;;;;5057819;28;20349;-67
2022/07/15 08:06:11;;;;;;;3.73;1.73;;;;;;;;;;5061226;28;20190;-67
2022/07/15 08:08:40;;;;;;;4.20;1.47;;;;;;;;;;5038426;28;20529;-66
2022/07/15 08:11:12;;;;;;;4.23;1.40;;;;;;;;;;5054009;28;20200;-68
2022/07/15 08:13:44;;;;;;;2.70;1.23;;;;;;;;;;5047353;28;20190;-69
2022/07/15 08:16:21;;;;;;;4.30;1.50;;;;;;;;;;5040775;28;20194;-69
2022/07/15 08:18:54;;;;;;;3.83;1.37;;;;;;;;;;5037228;28;20575;-69
2022/07/15 08:21:25;;;;;;;4.40;1.40;;;;;;;;;;5058700;28;20307;-67
2022/07/15 08:23:54;;;;;;;5.10;1.50;;;;;;;;;;5050965;28;20227;-67
2022/07/15 08:26:26;;;;;;;4.73;1.70;;;;;;;;;;5040507;28;20211;-68
2022/07/15 08:28:56;;;;;;;2.27;1.30;;;;;;;;;;5053702;28;20197;-68
2022/07/15 08:31:33;;;;;;;2.70;1.10;;;;;;;;;;5039581;28;20333;-66
2022/07/15 08:34:08;;;;;;;5.50;1.20;;;;;;;;;;5047895;28;20210;-67
2022/07/15 08:36:40;;;;;;;6.67;1.33;;;;;;;;;;5051012;28;20306;-69
2022/07/15 08:39:12;;;;;;;4.33;1.60;;;;;;;;;;5045996;28;20629;-67
2022/07/15 08:41:43;;;;;;;4.30;1.30;;;;;;;;;;5018692;28;20554;-67
2022/07/15 08:44:15;;;;;;;4.73;1.60;;;;;;;;;;5049120;28;20275;-65
2022/07/15 08:46:49;;;;;;;4.63;1.17;;;;;;;;;;5030204;28;20197;-66
2022/07/15 08:49:22;;;;;;;4.50;1.30;;;;;;;;;;5026431;28;20234;-65
2022/07/15 08:51:52;;;;;;;5.87;1.37;;;;;;;;;;5027779;28;20213;-66
2022/07/15 08:54:29;;;;;;;3.17;1.30;;;;;;;;;;4996322;28;20202;-67
2022/07/15 08:57:01;;;;;;;3.70;1.27;;;;;;;;;;5036808;28;20195;-67
2022/07/15 08:59:38;;;;;;;4.20;1.50;;;;;;;;;;5028195;28;20219;-70
2022/07/15 09:02:10;;;;;;;3.50;1.30;;;;;;;;;;5025413;28;20261;-68
2022/07/15 09:05:01;;;;;;;2.73;1.10;;;;;;;;;;5029353;28;20206;-68
2022/07/15 09:08:00;;;;;;;4.23;1.30;;;;;;;;;;5021092;28;20203;-68
2022/07/15 09:10:49;;;;;;;2.47;0.80;;;;;;;;;;5029771;28;20823;-68
2022/07/15 09:13:38;;;;;;;3.83;1.20;;;;;;;;;;5025794;28;20202;-70
2022/07/15 09:16:09;;;;;;;2.13;1.00;;;;;;;;;;5026956;28;20198;-68
2022/07/15 09:18:41;;;;;;;3.60;1.30;;;;;;;;;;5028198;28;20223;-67
2022/07/15 09:21:23;;;;;;;2.87;1.30;;;;;;;;;;4998981;28;20194;-67
2022/07/15 09:23:56;;;;;;;2.33;1.30;;;;;;;;;;5029665;28;20188;-68
2022/07/15 09:26:36;;;;;;;3.73;1.47;;;;;;;;;;5007635;28;20232;-69
2022/07/15 09:33:34;;;;;;;2.07;1.07;;;;;;;;;;5013338;28;20547;-67
2022/07/15 09:38:12;;;;;;;1.80;0.97;;;;;;;;;;5037545;28;20222;-66
2022/07/15 09:40:54;;;;;;;2.37;1.17;;;;;;;;;;5025247;28;20534;-66
2022/07/15 09:43:24;;;;;;;3.67;1.57;;;;;;;;;;5027338;28;20207;-66
2022/07/15 09:46:01;;;;;;;4.13;1.30;;;;;;;;;;5054846;28;20263;-68
2022/07/15 09:48:39;;;;;;;1.87;1.13;;;;;;;;;;5045400;28;20231;-67
2022/07/15 09:51:11;;;;;;;2.43;1.27;;;;;;;;;;5014091;28;20203;-67
2022/07/15 09:53:50;;;;;;;7.70;1.33;;;;;;;;;;5039364;28;20197;-71
2022/07/15 09:56:27;;;;;;;5.83;1.50;;;;;;;;;;5039853;28;20202;-68
2022/07/15 09:59:00;;;;;;;3.03;1.30;;;;;;;;;;5030979;28;20207;-68
2022/07/15 10:01:30;;;;;;;1.67;0.80;;;;;;;;;;5020722;28;20675;-66
2022/07/15 10:04:01;;;;;;;2.77;0.87;;;;;;;;;;5047329;28;20263;-66
2022/07/15 10:06:32;;;;;;;3.77;1.47;;;;;;;;;;5044816;28;20191;-66
2022/07/15 10:09:04;;;;;;;2.70;1.20;;;;;;;;;;5042125;28;20195;-66
2022/07/15 10:11:35;;;;;;;3.93;1.20;;;;;;;;;;5031258;28;20194;-66
2022/07/15 10:14:34;;;;;;;3.13;1.03;;;;;;;;;;5008470;28;20647;-65
2022/07/15 10:17:17;;;;;;;2.37;1.23;;;;;;;;;;5044325;28;20285;-65
2022/07/15 10:19:57;;;;;;;2.40;1.33;;;;;;;;;;5019255;28;20233;-66
2022/07/15 10:22:42;;;;;;;3.87;1.20;;;;;;;;;;5041053;28;20551;-65
2022/07/15 10:25:32;;;;;;;3.70;1.00;;;;;;;;;;5039505;28;20227;-65
2022/07/15 10:28:15;;;;;;;2.63;0.93;;;;;;;;;;5023065;28;20191;-65
2022/07/15 10:31:12;;;;;;;2.77;1.10;;;;;;;;;;5036112;28;20281;-65
2022/07/15 10:34:08;;;;;;;2.40;0.90;;;;;;;;;;5035294;28;20207;-66
2022/07/15 10:36:52;;;;;;;2.27;0.83;;;;;;;;;;4968340;28;21685;-65
2022/07/15 10:39:28;;;;;;;2.10;1.10;;;;;;;;;;5043977;28;20644;-66
2022/07/15 10:42:11;;;;;;;2.57;1.00;;;;;;;;;;5041383;28;20254;-67
2022/07/15 10:45:08;;;;;;;1.80;0.90;;;;;;;;;;5030969;28;20355;-66
2022/07/15 10:47:38;;;;;;;3.43;0.90;;;;;;;;;;5024985;28;20209;-67
2022/07/15 10:50:29;;;;;;;5.70;0.90;;;;;;;;;;5043409;28;20214;-66
2022/07/15 10:53:27;;;;;;;3.07;1.07;;;;;;;;;;5020131;28;20190;-66
2022/07/15 10:55:58;;;;;;;3.70;1.10;;;;;;;;;;5036075;28;20199;-66
2022/07/15 10:58:29;;;;;;;1.83;0.90;;;;;;;;;;5019229;28;20202;-66
2022/07/15 11:01:12;;;;;;;2.73;0.90;;;;;;;;;;5041310;28;20209;-66
2022/07/15 11:04:07;;;;;;;1.80;0.77;;;;;;;;;;5008863;28;20325;-66
2022/07/15 11:06:57;;;;;;;1.83;1.10;;;;;;;;;;5025093;28;20627;-66
2022/07/15 11:09:44;;;;;;;1.90;0.80;;;;;;;;;;5015081;28;20267;-66
2022/07/15 11:12:14;;;;;;;1.83;0.80;;;;;;;;;;5038046;28;20199;-66
2022/07/15 11:14:50;;;;;;;3.03;1.00;;;;;;;;;;5016195;28;20799;-66
2022/07/15 11:17:39;;;;;;;2.07;0.83;;;;;;;;;;5036695;28;20230;-66
2022/07/15 11:20:14;;;;;;;1.83;0.77;;;;;;;;;;5016046;28;20206;-65
2022/07/15 11:22:43;;;;;;;2.43;0.77;;;;;;;;;;5009758;28;20290;-66
2022/07/15 11:25:22;;;;;;;2.17;0.83;;;;;;;;;;5029535;28;20195;-66
2022/07/15 11:28:04;;;;;;;2.00;0.80;;;;;;;;;;5016295;28;20547;-69
2022/07/15 11:30:53;;;;;;;3.17;0.90;;;;;;;;;;5013501;28;20740;-68
2022/07/15 11:33:37;;;;;;;2.27;1.07;;;;;;;;;;5017448;28;20227;-65
2022/07/15 11:36:10;;;;;;;2.67;0.73;;;;;;;;;;5037522;28;20199;-65
2022/07/15 11:38:42;;;;;;;2.10;0.60;;;;;;;;;;5031815;28;20206;-64
2022/07/15 11:47:01;;;;;;;2.13;0.87;;;;;;;;;;5013735;28;20286;-66
2022/07/15 11:49:39;;;;;;;1.87;0.70;;;;;;;;;;4890179;28;3699936;-66
2022/07/15 11:52:12;;;;;;;2.83;0.80;;;;;;;;;;5027217;28;20233;-62
2022/07/15 11:54:58;;;;;;;3.23;0.90;;;;;;;;;;5018636;28;20257;-68
2022/07/15 11:57:34;;;;;;;2.37;0.80;;;;;;;;;;5044291;28;20198;-69
2022/07/15 12:00:11;;;;;;;1.47;0.60;;;;;;;;;;5032283;28;20190;-67
2022/07/15 12:02:45;;;;;;;1.50;0.63;;;;;;;;;;5013961;28;20765;-66
2022/07/15 12:05:20;;;;;;;3.43;0.77;;;;;;;;;;5032210;28;20280;-67
2022/07/15 12:07:52;;;;;;;1.57;0.80;;;;;;;;;;5043579;28;20247;-68
2022/07/15 12:10:37;;;;;;;1.07;0.70;;;;;;;;;;4984242;28;20198;-66
2022/07/15 12:13:10;;;;;;;2.07;0.70;;;;;;;;;;5031590;28;20664;-66
2022/07/15 12:15:42;;;;;;;1.33;0.87;;;;;;;;;;5031103;28;20195;-66
2022/07/15 12:18:14;;;;;;;1.83;1.00;;;;;;;;;;5032724;28;20278;-69
2022/07/15 12:20:47;;;;;;;1.77;0.70;;;;;;;;;;5020205;28;20198;-69
2022/07/15 12:23:18;;;;;;;3.07;0.87;;;;;;;;;;5032972;28;20207;-69
2022/07/15 12:25:47;;;;;;;1.03;0.70;;;;;;;;;;5019859;28;21099;-70
2022/07/15 12:28:37;;;;;;;1.73;0.70;;;;;;;;;;5030837;28;20297;-69
2022/07/15 12:31:12;;;;;;;1.90;0.70;;;;;;;;;;5032258;28;20199;-70
2022/07/15 12:33:41;;;;;;;1.23;0.60;;;;;;;;;;5013457;28;20277;-67
2022/07/15 12:36:21;;;;;;;1.20;0.77;;;;;;;;;;5019577;28;20198;-68
2022/07/15 12:39:09;;;;;;;2.90;0.80;;;;;;;;;;5038830;28;20202;-68
2022/07/15 12:42:10;;;;;;;1.23;0.87;;;;;;;;;;5034908;28;20210;-68
2022/07/15 12:44:40;;;;;;;2.57;0.93;;;;;;;;;;5009845;28;20767;-67
2022/07/15 12:47:12;;;;;;;1.43;0.80;;;;;;;;;;5019385;28;20265;-67
2022/07/15 12:49:49;;;;;;;3.10;0.80;;;;;;;;;;5040234;28;20222;-69
2022/07/15 12:52:37;;;;;;;0.80;0.60;;;;;;;;;;5028207;28;20756;-69
2022/07/15 12:55:14;;;;;;;1.60;0.83;;;;;;;;;;5013048;28;20203;-67
2022/07/15 12:57:48;;;;;;;0.83;0.67;;;;;;;;;;5036056;28;20190;-66
2022/07/15 13:00:23;;;;;;;2.73;0.97;;;;;;;;;;5034451;28;20186;-68
2022/07/15 13:03:03;;;;;;;2.13;0.87;;;;;;;;;;5029835;28;20710;-67
2022/07/15 13:05:45;;;;;;;2.00;0.80;;;;;;;;;;5029234;28;20692;-69
2022/07/15 13:08:19;;;;;;;3.37;1.00;;;;;;;;;;5008317;28;20209;-69
2022/07/15 13:10:54;;;;;;;1.43;0.87;;;;;;;;;;5040389;28;20515;-68
2022/07/15 13:13:28;;;;;;;1.63;0.90;;;;;;;;;;5013077;28;20206;-68
2022/07/15 13:16:02;;;;;;;3.67;1.20;;;;;;;;;;5031840;28;20211;-68
2022/07/15 13:18:37;;;;;;;0.90;0.70;;;;;;;;;;5023436;28;20654;-68
2022/07/15 13:21:09;;;;;;;7.40;0.90;;;;;;;;;;5012238;28;20694;-69
2022/07/15 13:23:51;;;;;;;1.63;0.60;;;;;;;;;;5012226;28;20869;-66
2022/07/15 13:26:23;;;;;;;1.77;0.77;;;;;;;;;;5038147;28;20270;-68
2022/07/15 13:28:53;;;;;;;0.97;0.60;;;;;;;;;;5039958;28;20272;-67
2022/07/15 13:31:23;;;;;;;2.50;0.80;;;;;;;;;;5032732;28;20194;-68
2022/07/15 13:33:55;;;;;;;2.20;0.90;;;;;;;;;;5031162;28;20237;-69
2022/07/15 13:36:25;;;;;;;1.83;0.80;;;;;;;;;;5020792;28;20214;-67
2022/07/15 13:38:55;;;;;;;2.90;0.80;;;;;;;;;;5030308;28;20814;-69
2022/07/15 13:41:25;;;;;;;1.87;0.70;;;;;;;;;;5022904;28;20257;-69
2022/07/15 13:43:55;;;;;;;1.67;0.70;;;;;;;;;;5027229;28;20215;-68
2022/07/15 13:46:25;;;;;;;1.20;0.70;;;;;;;;;;5019809;28;20207;-67
2022/07/15 13:48:57;;;;;;;1.20;0.60;;;;;;;;;;5028948;28;20578;-67
2022/07/15 13:51:26;;;;;;;1.20;0.60;;;;;;;;;;5008434;28;20203;-63
2022/07/15 13:53:58;;;;;;;1.13;0.63;;;;;;;;;;5008815;28;20250;-63
2022/07/15 13:56:34;;;;;;;0.87;0.53;;;;;;;;;;5035810;28;20194;-62
2022/07/15 13:59:08;;;;;;;1.83;0.60;;;;;;;;;;5026231;28;20214;-62
2022/07/15 14:01:51;;;;;;;0.80;0.60;;;;;;;;;;5026352;28;20191;-63
2022/07/15 14:04:26;;;;;;;1.20;0.67;;;;;;;;;;5035044;28;20248;-63
2022/07/15 14:06:56;;;;;;;1.97;0.63;;;;;;;;;;5027326;28;20214;-64
2022/07/15 14:09:28;;;;;;;0.97;0.63;;;;;;;;;;5027535;28;20224;-64
2022/07/15 14:12:01;;;;;;;1.23;0.50;;;;;;;;;;5029779;28;20206;-63
2022/07/15 14:14:33;;;;;;;1.33;0.67;;;;;;;;;;5025399;28;20278;-63
2022/07/15 14:17:06;;;;;;;0.80;0.60;;;;;;;;;;5022550;28;20218;-63
2022/07/15 14:19:49;;;;;;;1.27;0.70;;;;;;;;;;5024523;28;20261;-63
2022/07/15 14:22:17;;;;;;;0.70;0.50;;;;;;;;;;5037043;28;20199;-63
2022/07/15 14:24:49;;;;;;;0.77;0.50;;;;;;;;;;5013118;28;20202;-63
2022/07/15 14:27:20;;;;;;;1.03;0.70;;;;;;;;;;5023820;28;20211;-65
2022/07/15 14:29:53;;;;;;;0.80;0.50;;;;;;;;;;5006735;28;20668;-65
2022/07/15 14:32:31;;;;;;;0.60;0.60;;;;;;;;;;5006344;28;20744;-64
2022/07/15 14:35:08;;;;;;;1.33;0.60;;;;;;;;;;5037329;28;20195;-64
2022/07/15 14:37:52;;;;;;;0.60;0.60;;;;;;;;;;5023771;28;20809;-62
2022/07/15 14:40:23;;;;;;;0.57;0.57;;;;;;;;;;5029821;28;20672;-63
2022/07/15 14:42:54;;;;;;;1.17;0.83;;;;;;;;;;5029233;28;20533;-64
2022/07/15 14:45:24;;;;;;;2.97;0.60;;;;;;;;;;5038054;28;20855;-64
2022/07/15 14:47:52;;;;;;;0.83;0.60;;;;;;;;;;5028847;28;20235;-64
2022/07/15 14:50:23;;;;;;;1.17;0.67;;;;;;;;;;5036694;28;20229;-64
2022/07/15 14:52:52;;;;;;;1.27;0.60;;;;;;;;;;5025487;28;20270;-64
2022/07/15 14:55:25;;;;;;;7.10;0.97;;;;;;;;;;5035537;28;20660;-64
2022/07/15 14:58:03;;;;;;;0.63;0.60;;;;;;;;;;5029274;28;20203;-64
2022/07/15 15:00:36;;;;;;;0.50;0.40;;;;;;;;;;5031227;28;20572;-64
2022/07/15 15:03:07;;;;;;;1.23;0.40;;;;;;;;;;5026519;28;20214;-64
2022/07/15 15:05:36;;;;;;;0.87;0.50;;;;;;;;;;5023273;28;20199;-64
2022/07/15 15:08:08;;;;;;;0.40;0.37;;;;;;;;;;5004915;28;20191;-64
2022/07/15 15:10:41;;;;;;;1.00;0.57;;;;;;;;;;5038354;28;20714;-64
2022/07/15 15:13:13;;;;;;;0.93;0.50;;;;;;;;;;5002318;28;20269;-64
2022/07/15 15:15:44;;;;;;;0.60;0.50;;;;;;;;;;5028169;28;20289;-65
2022/07/15 15:18:18;;;;;;;0.83;0.53;;;;;;;;;;5034183;28;20674;-65
2022/07/15 15:20:49;;;;;;;0.83;0.67;;;;;;;;;;5030881;28;20202;-64
2022/07/15 15:23:24;;;;;;;0.63;0.50;;;;;;;;;;5036004;28;20248;-64
2022/07/15 15:28:42;;;;;;;0.83;0.40;;;;;;;;;;5027135;28;20211;-65
2022/07/15 15:31:15;;;;;;;0.70;0.60;;;;;;;;;;5029112;28;20647;-63
2022/07/15 15:33:48;;;;;;;0.67;0.50;;;;;;;;;;5024347;28;20467;-62
2022/07/15 15:36:19;;;;;;;1.23;0.70;;;;;;;;;;5031508;28;20191;-63
2022/07/15 15:39:06;;;;;;;0.70;0.57;;;;;;;;;;5000336;28;20204;-63
2022/07/15 15:41:37;;;;;;;1.43;0.70;;;;;;;;;;5002542;28;20204;-64